Kuching International Airport Kuching MY
ICAO: WBGG
IATA: KCH
Category: Medium
Scheduled Services: Yes

Elevation: 89 ft
TransAlt. 11000 ft.

Airport Communications:
RDR:134.5
APP DIRECTOR:120.2
ATIS:128.4
GND:121.9
TWR:118.1

WBGG Zoom In..

Runways:

(A) RW 07 length 12402 ft width 151 ft
---- / hdg 68

(B) RW 25 length 12402 ft width 151 ft
ILS 110.30 / hdg 248

Location; WBGG
Day. 06 / Time. 22.00 Zulu
* QNH: 1010
* Temperature: 24° c. 75.2°f.
* Wind from: 110° Speed 03 kn.
Dewpoint: 24° c.
Visibility: 6000 m.
Clouds: Few 000 ft.
No significant changes expected in the near future.

WBGG 062200Z 11003KT 080V140 6000 FEW000 24/24 Q1010 NOSIG


Wind From 110°
Speed 03 kn.

 
 
jpsmedia worldairports.se 2020   terms of use